Concrete, WA (98237)

5:38 PM PDT on September 02, 2015 (GMT -0700)
Lyman, WA | | Change Station
CLOSE
Current Station
Personal Weather Station
Location: Sedro Woolley, WA
Elevation: 476 ft
Nearby Weather Stations

Elev 476 ft 48.54 °N, 122.08 °W | Updated 33 minutes ago

Overcast
Overcast
52.9 °F
Feels Like 52.9 °F
N
0.0
Wind Variable Wind from East
Gusts 0.0 mph

Today
High -- | Low -- °F
--% Chance of Precip.
Yesterday
High -- | Low -- °F
Precip. -- in
6:25 AM 7:46 PM
Waning Gibbous, 76% visible
Pressure 29.94 in
Visibility 9.0 miles
Clouds Mostly Cloudy 3300 ft
Mostly Cloudy 4200 ft
Overcast 6000 ft
Dew Point 51 °F
Humidity 94%
Rainfall 0.44 in
Snow Depth Not available.
UV 1 out of 12
Pollen .50 out of 12
Air Quality Not available.
Flu Activity Not available.
METAR KBVS 030015Z AUTO 00000KT 9SM BKN033 BKN042 OVC060 14/10 A2994 RMK A01
Pressure 29.94 in
Visibility 9.0 miles
Clouds Mostly Cloudy 3300 ft
Mostly Cloudy 4200 ft
Overcast 6000 ft
Dew Point 51 °F
Humidity 94%
Rainfall 0.44 in
Snow Depth Not available.
UV 1 out of 12
Pollen .50 out of 12
Air Quality Not available.
Flu Activity Not available.
METAR KBVS 030015Z AUTO 00000KT 9SM BKN033 BKN042 OVC060 14/10 A2994 RMK A01

10-Day Weather Forecast

×

Almanac

Astronomy

Sep. 02, 2015 Rise Set
Actual Time
Civil Twilight
Nautical Twilight
Astronomical Twilight
Moon
Length of Visible Light
Length of Day
Tomorrow will be .
, % of the Moon is Illuminated

Today's Extremes

State Highs State Lows

Community

WunderPhotos

Upload Photos

1,851,853 photos uploaded!

WunderBlogs® & News

Nearby

Air Quality

  Air Quality AQ Index Pollutant
Not available.

Snow Depth

Station Depth Elevation

Earthquake Activity

City Distance Mag. Time & Date
Minimum magnitude displayed is 2.5.

Coastal Water Temperatures

Place Temperature

Stations

Nearby Weather Stations

Station Location Temp. Windchill Dew Point Humidity Wind Precip. Elev Updated Type